sensor_id;sensor_type;location;lat;lon;timestamp;temperature;humidity
82126;DHT22;71668;51.400;6.758;2024-02-26T00:51:18;7.80;99.90
82126;DHT22;71668;51.400;6.758;2024-02-26T00:53:49;7.80;99.90
82126;DHT22;71668;51.400;6.758;2024-02-26T00:56:16;7.70;99.90
82126;DHT22;71668;51.400;6.758;2024-02-26T00:58:43;7.60;99.90
82126;DHT22;71668;51.400;6.758;2024-02-26T01:01:10;7.60;99.90
82126;DHT22;71668;51.400;6.758;2024-02-26T01:03:37;7.60;99.90
82126;DHT22;71668;51.400;6.758;2024-02-26T01:06:04;7.40;99.90
82126;DHT22;71668;51.400;6.758;2024-02-26T01:08:30;7.40;99.90
82126;DHT22;71668;51.400;6.758;2024-02-26T01:10:58;7.40;99.90
82126;DHT22;71668;51.400;6.758;2024-02-26T01:13:25;7.40;99.90
82126;DHT22;71668;51.400;6.758;2024-02-26T01:15:51;7.40;99.90
82126;DHT22;71668;51.400;6.758;2024-02-26T01:18:18;7.50;99.90
82126;DHT22;71668;51.400;6.758;2024-02-26T01:20:45;7.50;99.90
82126;DHT22;71668;51.400;6.758;2024-02-26T01:23:12;7.50;99.90
82126;DHT22;71668;51.400;6.758;2024-02-26T01:25:39;7.50;99.90
82126;DHT22;71668;51.400;6.758;2024-02-26T01:28:06;7.60;99.90
82126;DHT22;71668;51.400;6.758;2024-02-26T01:30:33;7.60;99.90
82126;DHT22;71668;51.400;6.758;2024-02-26T01:32:59;7.50;99.90
82126;DHT22;71668;51.400;6.758;2024-02-26T01:35:26;7.30;99.90
82126;DHT22;71668;51.400;6.758;2024-02-26T01:37:53;7.30;99.90
82126;DHT22;71668;51.400;6.758;2024-02-26T01:40:20;7.30;99.90
82126;DHT22;71668;51.400;6.758;2024-02-26T01:42:47;7.30;99.90
82126;DHT22;71668;51.400;6.758;2024-02-26T01:45:16;7.20;99.90
82126;DHT22;71668;51.400;6.758;2024-02-26T01:47:52;7.20;99.90
82126;DHT22;71668;51.400;6.758;2024-02-26T01:50:20;7.20;99.90
82126;DHT22;71668;51.400;6.758;2024-02-26T01:52:50;7.10;99.90
82126;DHT22;71668;51.400;6.758;2024-02-26T01:55:18;7.10;99.90
82126;DHT22;71668;51.400;6.758;2024-02-26T01:57:47;7.10;99.90
82126;DHT22;71668;51.400;6.758;2024-02-26T02:00:17;7.10;99.90
82126;DHT22;71668;51.400;6.758;2024-02-26T02:02:45;7.20;99.90
82126;DHT22;71668;51.400;6.758;2024-02-26T02:05:16;7.10;99.90
82126;DHT22;71668;51.400;6.758;2024-02-26T02:07:46;7.20;99.90
82126;DHT22;71668;51.400;6.758;2024-02-26T02:10:15;7.20;99.90
82126;DHT22;71668;51.400;6.758;2024-02-26T02:12:43;7.10;99.90
82126;DHT22;71668;51.400;6.758;2024-02-26T02:15:10;7.10;99.90
82126;DHT22;71668;51.400;6.758;2024-02-26T02:17:37;7.10;99.90
82126;DHT22;71668;51.400;6.758;2024-02-26T02:20:17;7.10;99.90
82126;DHT22;71668;51.400;6.758;2024-02-26T02:22:46;7.10;99.90
82126;DHT22;71668;51.400;6.758;2024-02-26T02:25:13;7.10;99.90
82126;DHT22;71668;51.400;6.758;2024-02-26T02:27:41;7.10;99.90
82126;DHT22;71668;51.400;6.758;2024-02-26T02:30:09;7.10;99.90
82126;DHT22;71668;51.400;6.758;2024-02-26T02:32:38;7.10;99.90
82126;DHT22;71668;51.400;6.758;2024-02-26T02:35:06;7.10;99.90
82126;DHT22;71668;51.400;6.758;2024-02-26T02:37:34;7.10;99.90
82126;DHT22;71668;51.400;6.758;2024-02-26T02:40:00;7.10;99.90
82126;DHT22;71668;51.400;6.758;2024-02-26T02:42:27;7.10;99.90
82126;DHT22;71668;51.400;6.758;2024-02-26T02:44:54;7.20;99.90
82126;DHT22;71668;51.400;6.758;2024-02-26T02:47:21;7.10;99.90
82126;DHT22;71668;51.400;6.758;2024-02-26T02:49:48;7.10;99.90
82126;DHT22;71668;51.400;6.758;2024-02-26T02:52:15;7.10;99.90
82126;DHT22;71668;51.400;6.758;2024-02-26T02:54:42;7.20;99.90
82126;DHT22;71668;51.400;6.758;2024-02-26T02:57:09;7.20;99.90
82126;DHT22;71668;51.400;6.758;2024-02-26T02:59:37;7.10;99.90
82126;DHT22;71668;51.400;6.758;2024-02-26T03:02:04;7.10;99.90
82126;DHT22;71668;51.400;6.758;2024-02-26T03:04:31;7.00;99.90
82126;DHT22;71668;51.400;6.758;2024-02-26T03:06:58;7.00;99.90
82126;DHT22;71668;51.400;6.758;2024-02-26T03:09:27;7.00;99.90
82126;DHT22;71668;51.400;6.758;2024-02-26T03:11:54;7.00;99.90
82126;DHT22;71668;51.400;6.758;2024-02-26T03:14:21;6.90;99.90
82126;DHT22;71668;51.400;6.758;2024-02-26T03:16:48;6.90;99.90
82126;DHT22;71668;51.400;6.758;2024-02-26T03:19:15;6.80;99.90
82126;DHT22;71668;51.400;6.758;2024-02-26T03:21:45;6.80;99.90
82126;DHT22;71668;51.400;6.758;2024-02-26T03:24:12;6.70;99.90
82126;DHT22;71668;51.400;6.758;2024-02-26T03:26:39;6.70;99.90
82126;DHT22;71668;51.400;6.758;2024-02-26T03:29:06;6.70;99.90
82126;DHT22;71668;51.400;6.758;2024-02-26T03:31:32;6.50;99.90
82126;DHT22;71668;51.400;6.758;2024-02-26T03:33:59;6.50;99.90
82126;DHT22;71668;51.400;6.758;2024-02-26T03:36:26;6.50;99.90
82126;DHT22;71668;51.400;6.758;2024-02-26T03:38:53;6.50;99.90
82126;DHT22;71668;51.400;6.758;2024-02-26T03:41:20;6.50;99.90
82126;DHT22;71668;51.400;6.758;2024-02-26T03:43:47;6.40;99.90
82126;DHT22;71668;51.400;6.758;2024-02-26T03:46:14;6.40;99.90
82126;DHT22;71668;51.400;6.758;2024-02-26T03:48:41;6.40;99.90
82126;DHT22;71668;51.400;6.758;2024-02-26T03:51:09;6.40;99.90
82126;DHT22;71668;51.400;6.758;2024-02-26T03:53:37;6.40;99.90
82126;DHT22;71668;51.400;6.758;2024-02-26T03:56:05;6.40;99.90
82126;DHT22;71668;51.400;6.758;2024-02-26T03:58:32;6.40;99.90
82126;DHT22;71668;51.400;6.758;2024-02-26T04:01:00;6.30;99.90
82126;DHT22;71668;51.400;6.758;2024-02-26T04:03:27;6.30;99.90
82126;DHT22;71668;51.400;6.758;2024-02-26T04:05:54;6.30;99.90
82126;DHT22;71668;51.400;6.758;2024-02-26T04:08:21;6.20;99.90
82126;DHT22;71668;51.400;6.758;2024-02-26T04:10:48;6.20;99.90
82126;DHT22;71668;51.400;6.758;2024-02-26T04:13:15;6.10;99.90
82126;DHT22;71668;51.400;6.758;2024-02-26T04:15:42;6.20;99.90
82126;DHT22;71668;51.400;6.758;2024-02-26T04:18:08;6.20;99.90
82126;DHT22;71668;51.400;6.758;2024-02-26T04:20:35;6.10;99.90
82126;DHT22;71668;51.400;6.758;2024-02-26T04:23:03;6.10;99.90
82126;DHT22;71668;51.400;6.758;2024-02-26T04:25:30;6.10;99.90
82126;DHT22;71668;51.400;6.758;2024-02-26T04:27:57;6.10;99.90
82126;DHT22;71668;51.400;6.758;2024-02-26T04:30:23;6.10;99.90
82126;DHT22;71668;51.400;6.758;2024-02-26T04:32:50;6.10;99.90
82126;DHT22;71668;51.400;6.758;2024-02-26T04:35:18;6.00;99.90
82126;DHT22;71668;51.400;6.758;2024-02-26T04:37:45;6.00;99.90
82126;DHT22;71668;51.400;6.758;2024-02-26T04:40:12;6.00;99.90
82126;DHT22;71668;51.400;6.758;2024-02-26T04:42:39;6.00;99.90
82126;DHT22;71668;51.400;6.758;2024-02-26T04:45:06;6.00;99.90
82126;DHT22;71668;51.400;6.758;2024-02-26T04:47:34;6.00;99.90
82126;DHT22;71668;51.400;6.758;2024-02-26T04:50:01;6.10;99.90
82126;DHT22;71668;51.400;6.758;2024-02-26T04:52:28;6.00;99.90
82126;DHT22;71668;51.400;6.758;2024-02-26T04:54:55;6.00;99.90
82126;DHT22;71668;51.400;6.758;2024-02-26T04:57:22;6.00;99.90
82126;DHT22;71668;51.400;6.758;2024-02-26T04:59:49;6.00;99.90
82126;DHT22;71668;51.400;6.758;2024-02-26T05:02:16;6.00;99.90
82126;DHT22;71668;51.400;6.758;2024-02-26T05:04:43;5.90;99.90
82126;DHT22;71668;51.400;6.758;2024-02-26T05:07:10;5.80;99.90
82126;DHT22;71668;51.400;6.758;2024-02-26T05:09:36;5.80;99.90
82126;DHT22;71668;51.400;6.758;2024-02-26T05:12:04;5.80;99.90
82126;DHT22;71668;51.400;6.758;2024-02-26T05:14:31;5.90;99.90
82126;DHT22;71668;51.400;6.758;2024-02-26T05:16:58;5.80;99.90
82126;DHT22;71668;51.400;6.758;2024-02-26T05:19:25;5.80;99.90
82126;DHT22;71668;51.400;6.758;2024-02-26T05:21:53;5.80;99.90
82126;DHT22;71668;51.400;6.758;2024-02-26T05:24:20;5.70;99.90
82126;DHT22;71668;51.400;6.758;2024-02-26T05:26:49;5.70;99.90
82126;DHT22;71668;51.400;6.758;2024-02-26T05:29:16;5.80;99.90
82126;DHT22;71668;51.400;6.758;2024-02-26T05:31:43;5.80;99.90
82126;DHT22;71668;51.400;6.758;2024-02-26T05:34:10;5.80;99.90
82126;DHT22;71668;51.400;6.758;2024-02-26T05:36:37;5.80;99.90
82126;DHT22;71668;51.400;6.758;2024-02-26T05:39:04;5.70;99.90
82126;DHT22;71668;51.400;6.758;2024-02-26T05:41:31;5.70;99.90
82126;DHT22;71668;51.400;6.758;2024-02-26T05:43:58;5.70;99.90
82126;DHT22;71668;51.400;6.758;2024-02-26T05:46:25;5.70;99.90
82126;DHT22;71668;51.400;6.758;2024-02-26T05:48:53;5.70;99.90
82126;DHT22;71668;51.400;6.758;2024-02-26T05:51:21;5.70;99.90
82126;DHT22;71668;51.400;6.758;2024-02-26T05:53:48;5.70;99.90
82126;DHT22;71668;51.400;6.758;2024-02-26T05:56:24;5.70;99.90
82126;DHT22;71668;51.400;6.758;2024-02-26T05:58:51;5.70;99.90
82126;DHT22;71668;51.400;6.758;2024-02-26T06:01:19;5.70;99.90
82126;DHT22;71668;51.400;6.758;2024-02-26T06:03:47;5.70;99.90
82126;DHT22;71668;51.400;6.758;2024-02-26T06:06:13;5.70;99.90
82126;DHT22;71668;51.400;6.758;2024-02-26T06:08:42;5.60;99.90
82126;DHT22;71668;51.400;6.758;2024-02-26T06:11:09;5.60;99.90
82126;DHT22;71668;51.400;6.758;2024-02-26T06:13:36;5.60;99.90
82126;DHT22;71668;51.400;6.758;2024-02-26T06:16:03;5.60;99.90
82126;DHT22;71668;51.400;6.758;2024-02-26T06:18:30;5.60;99.90
82126;DHT22;71668;51.400;6.758;2024-02-26T06:20:57;5.60;99.90
82126;DHT22;71668;51.400;6.758;2024-02-26T06:23:24;5.60;99.90
82126;DHT22;71668;51.400;6.758;2024-02-26T06:25:51;5.50;99.90
82126;DHT22;71668;51.400;6.758;2024-02-26T06:28:18;5.60;99.90
82126;DHT22;71668;51.400;6.758;2024-02-26T06:30:45;5.50;99.90
82126;DHT22;71668;51.400;6.758;2024-02-26T06:33:12;5.60;99.90
82126;DHT22;71668;51.400;6.758;2024-02-26T06:35:41;5.50;99.90
82126;DHT22;71668;51.400;6.758;2024-02-26T06:38:08;5.50;99.90
82126;DHT22;71668;51.400;6.758;2024-02-26T06:40:35;5.50;99.90
82126;DHT22;71668;51.400;6.758;2024-02-26T06:43:02;5.50;99.90
82126;DHT22;71668;51.400;6.758;2024-02-26T06:45:29;5.50;99.90
82126;DHT22;71668;51.400;6.758;2024-02-26T06:47:56;5.50;99.90
82126;DHT22;71668;51.400;6.758;2024-02-26T06:50:23;5.60;99.90
82126;DHT22;71668;51.400;6.758;2024-02-26T06:52:50;5.60;99.90
82126;DHT22;71668;51.400;6.758;2024-02-26T06:55:16;5.60;99.90
82126;DHT22;71668;51.400;6.758;2024-02-26T06:57:43;5.60;99.90
82126;DHT22;71668;51.400;6.758;2024-02-26T07:00:11;5.70;99.90
82126;DHT22;71668;51.400;6.758;2024-02-26T07:02:42;5.60;99.90
82126;DHT22;71668;51.400;6.758;2024-02-26T07:05:09;5.60;99.90
82126;DHT22;71668;51.400;6.758;2024-02-26T07:07:36;5.60;99.90
82126;DHT22;71668;51.400;6.758;2024-02-26T07:10:04;5.70;99.90
82126;DHT22;71668;51.400;6.758;2024-02-26T07:12:32;5.60;99.90
82126;DHT22;71668;51.400;6.758;2024-02-26T07:14:59;5.70;99.90
82126;DHT22;71668;51.400;6.758;2024-02-26T07:17:27;5.60;99.90
82126;DHT22;71668;51.400;6.758;2024-02-26T07:19:57;5.60;99.90
82126;DHT22;71668;51.400;6.758;2024-02-26T07:22:25;5.70;99.90
82126;DHT22;71668;51.400;6.758;2024-02-26T07:24:52;5.70;99.90
82126;DHT22;71668;51.400;6.758;2024-02-26T07:27:19;5.70;99.90
82126;DHT22;71668;51.400;6.758;2024-02-26T07:29:47;5.70;99.90
82126;DHT22;71668;51.400;6.758;2024-02-26T07:32:14;5.70;99.90
82126;DHT22;71668;51.400;6.758;2024-02-26T07:34:42;5.70;99.90
82126;DHT22;71668;51.400;6.758;2024-02-26T07:37:11;5.80;99.90
82126;DHT22;71668;51.400;6.758;2024-02-26T07:39:38;5.80;99.90
82126;DHT22;71668;51.400;6.758;2024-02-26T07:42:05;5.70;99.90
82126;DHT22;71668;51.400;6.758;2024-02-26T07:44:33;5.70;99.90
82126;DHT22;71668;51.400;6.758;2024-02-26T07:47:00;5.70;99.90
82126;DHT22;71668;51.400;6.758;2024-02-26T07:49:27;5.70;99.90
82126;DHT22;71668;51.400;6.758;2024-02-26T07:51:54;5.70;99.90
82126;DHT22;71668;51.400;6.758;2024-02-26T07:54:21;5.70;99.90
82126;DHT22;71668;51.400;6.758;2024-02-26T07:56:48;5.80;99.90
82126;DHT22;71668;51.400;6.758;2024-02-26T07:59:15;5.70;99.90
82126;DHT22;71668;51.400;6.758;2024-02-26T08:01:42;5.70;99.90
82126;DHT22;71668;51.400;6.758;2024-02-26T08:04:12;5.90;99.90
82126;DHT22;71668;51.400;6.758;2024-02-26T08:06:38;6.00;99.90
82126;DHT22;71668;51.400;6.758;2024-02-26T08:09:05;6.00;99.90
82126;DHT22;71668;51.400;6.758;2024-02-26T08:11:33;6.20;99.90
82126;DHT22;71668;51.400;6.758;2024-02-26T08:14:00;6.00;99.90
82126;DHT22;71668;51.400;6.758;2024-02-26T08:16:27;5.90;99.90
82126;DHT22;71668;51.400;6.758;2024-02-26T08:18:55;5.90;99.90
82126;DHT22;71668;51.400;6.758;2024-02-26T08:21:22;5.80;99.90
82126;DHT22;71668;51.400;6.758;2024-02-26T08:23:49;5.80;99.90
82126;DHT22;71668;51.400;6.758;2024-02-26T08:26:16;5.80;99.90
82126;DHT22;71668;51.400;6.758;2024-02-26T08:28:43;5.80;99.90
82126;DHT22;71668;51.400;6.758;2024-02-26T08:31:14;5.80;99.90
82126;DHT22;71668;51.400;6.758;2024-02-26T08:33:42;5.80;99.90
82126;DHT22;71668;51.400;6.758;2024-02-26T08:36:11;5.80;99.90
82126;DHT22;71668;51.400;6.758;2024-02-26T08:38:39;5.80;99.90
82126;DHT22;71668;51.400;6.758;2024-02-26T08:41:06;5.70;99.90
82126;DHT22;71668;51.400;6.758;2024-02-26T08:43:35;5.80;99.90
82126;DHT22;71668;51.400;6.758;2024-02-26T08:46:02;5.80;99.90
82126;DHT22;71668;51.400;6.758;2024-02-26T08:48:30;5.80;99.90
82126;DHT22;71668;51.400;6.758;2024-02-26T08:50:57;5.90;99.90
82126;DHT22;71668;51.400;6.758;2024-02-26T08:53:24;5.80;99.90
82126;DHT22;71668;51.400;6.758;2024-02-26T08:56:07;5.80;99.90
82126;DHT22;71668;51.400;6.758;2024-02-26T08:58:34;5.80;99.90
82126;DHT22;71668;51.400;6.758;2024-02-26T09:01:02;5.80;99.90
82126;DHT22;71668;51.400;6.758;2024-02-26T09:03:32;5.80;99.90
82126;DHT22;71668;51.400;6.758;2024-02-26T09:05:59;5.80;99.90
82126;DHT22;71668;51.400;6.758;2024-02-26T09:08:26;5.90;99.90
82126;DHT22;71668;51.400;6.758;2024-02-26T09:10:53;5.90;99.90
82126;DHT22;71668;51.400;6.758;2024-02-26T09:13:20;5.90;99.90
82126;DHT22;71668;51.400;6.758;2024-02-26T09:15:47;5.90;99.90
82126;DHT22;71668;51.400;6.758;2024-02-26T09:18:13;5.90;99.90
82126;DHT22;71668;51.400;6.758;2024-02-26T09:20:42;5.90;99.90
82126;DHT22;71668;51.400;6.758;2024-02-26T09:23:09;5.90;99.90
82126;DHT22;71668;51.400;6.758;2024-02-26T09:25:39;5.80;99.90
82126;DHT22;71668;51.400;6.758;2024-02-26T09:28:08;5.80;99.90
82126;DHT22;71668;51.400;6.758;2024-02-26T09:30:35;5.90;99.90
82126;DHT22;71668;51.400;6.758;2024-02-26T09:33:02;5.80;99.90
82126;DHT22;71668;51.400;6.758;2024-02-26T09:35:29;5.90;99.90
82126;DHT22;71668;51.400;6.758;2024-02-26T09:37:57;5.90;99.90
82126;DHT22;71668;51.400;6.758;2024-02-26T09:40:24;5.90;99.90
82126;DHT22;71668;51.400;6.758;2024-02-26T09:42:55;5.90;99.90
82126;DHT22;71668;51.400;6.758;2024-02-26T09:45:26;5.90;99.90
82126;DHT22;71668;51.400;6.758;2024-02-26T09:47:55;5.90;99.90
82126;DHT22;71668;51.400;6.758;2024-02-26T09:50:23;5.90;99.90
82126;DHT22;71668;51.400;6.758;2024-02-26T09:52:51;5.90;99.90
82126;DHT22;71668;51.400;6.758;2024-02-26T09:55:18;6.00;99.90
82126;DHT22;71668;51.400;6.758;2024-02-26T09:57:48;5.90;99.90
82126;DHT22;71668;51.400;6.758;2024-02-26T10:00:19;5.90;99.90
82126;DHT22;71668;51.400;6.758;2024-02-26T10:02:47;5.90;99.90
82126;DHT22;71668;51.400;6.758;2024-02-26T10:05:17;6.00;99.90
82126;DHT22;71668;51.400;6.758;2024-02-26T10:07:46;6.00;99.90
82126;DHT22;71668;51.400;6.758;2024-02-26T10:10:17;5.90;99.90
82126;DHT22;71668;51.400;6.758;2024-02-26T10:12:44;5.90;99.90
82126;DHT22;71668;51.400;6.758;2024-02-26T10:15:11;6.00;99.90
82126;DHT22;71668;51.400;6.758;2024-02-26T10:17:38;5.90;99.90
82126;DHT22;71668;51.400;6.758;2024-02-26T10:20:13;6.00;99.90
82126;DHT22;71668;51.400;6.758;2024-02-26T10:22:45;6.00;99.90
82126;DHT22;71668;51.400;6.758;2024-02-26T10:25:15;6.00;99.90
82126;DHT22;71668;51.400;6.758;2024-02-26T10:27:42;6.00;99.90
82126;DHT22;71668;51.400;6.758;2024-02-26T10:30:22;6.00;99.90
82126;DHT22;71668;51.400;6.758;2024-02-26T10:32:53;6.00;99.90
82126;DHT22;71668;51.400;6.758;2024-02-26T10:35:20;6.10;99.90
82126;DHT22;71668;51.400;6.758;2024-02-26T10:37:49;6.10;99.90
82126;DHT22;71668;51.400;6.758;2024-02-26T10:40:16;6.10;99.90
82126;DHT22;71668;51.400;6.758;2024-02-26T10:42:43;6.10;99.90
82126;DHT22;71668;51.400;6.758;2024-02-26T10:45:12;6.20;99.90
82126;DHT22;71668;51.400;6.758;2024-02-26T10:47:40;6.20;99.90
82126;DHT22;71668;51.400;6.758;2024-02-26T10:50:09;6.20;99.90
82126;DHT22;71668;51.400;6.758;2024-02-26T10:52:37;6.20;99.90
82126;DHT22;71668;51.400;6.758;2024-02-26T10:55:05;6.30;99.90
82126;DHT22;71668;51.400;6.758;2024-02-26T10:57:39;6.20;99.90
82126;DHT22;71668;51.400;6.758;2024-02-26T11:00:14;6.30;99.90
82126;DHT22;71668;51.400;6.758;2024-02-26T11:02:44;6.30;99.90
82126;DHT22;71668;51.400;6.758;2024-02-26T11:05:12;6.30;99.90
82126;DHT22;71668;51.400;6.758;2024-02-26T11:07:41;6.30;99.90
82126;DHT22;71668;51.400;6.758;2024-02-26T11:10:09;6.30;99.90
82126;DHT22;71668;51.400;6.758;2024-02-26T11:12:39;6.30;99.90
82126;DHT22;71668;51.400;6.758;2024-02-26T11:15:06;6.40;99.90
82126;DHT22;71668;51.400;6.758;2024-02-26T11:17:35;6.40;99.90
82126;DHT22;71668;51.400;6.758;2024-02-26T11:20:04;6.50;99.90
82126;DHT22;71668;51.400;6.758;2024-02-26T11:22:32;6.50;99.90
82126;DHT22;71668;51.400;6.758;2024-02-26T11:25:00;6.50;99.90
82126;DHT22;71668;51.400;6.758;2024-02-26T11:27:32;6.60;99.90
82126;DHT22;71668;51.400;6.758;2024-02-26T11:30:01;6.50;99.90
82126;DHT22;71668;51.400;6.758;2024-02-26T11:32:30;6.50;99.90
82126;DHT22;71668;51.400;6.758;2024-02-26T11:34:58;6.50;99.90
82126;DHT22;71668;51.400;6.758;2024-02-26T11:37:25;6.60;99.90
82126;DHT22;71668;51.400;6.758;2024-02-26T11:39:52;6.60;99.90
82126;DHT22;71668;51.400;6.758;2024-02-26T11:42:23;6.60;99.90
82126;DHT22;71668;51.400;6.758;2024-02-26T11:44:52;6.70;99.90
82126;DHT22;71668;51.400;6.758;2024-02-26T11:47:20;6.70;99.90
82126;DHT22;71668;51.400;6.758;2024-02-26T11:49:48;6.70;99.90
82126;DHT22;71668;51.400;6.758;2024-02-26T11:52:16;6.80;99.90
82126;DHT22;71668;51.400;6.758;2024-02-26T11:54:48;6.80;99.90
82126;DHT22;71668;51.400;6.758;2024-02-26T11:57:37;6.80;99.90
82126;DHT22;71668;51.400;6.758;2024-02-26T12:00:15;6.90;99.90
82126;DHT22;71668;51.400;6.758;2024-02-26T12:02:50;6.90;99.90
82126;DHT22;71668;51.400;6.758;2024-02-26T12:05:25;6.90;99.90
82126;DHT22;71668;51.400;6.758;2024-02-26T12:07:59;6.90;99.90
82126;DHT22;71668;51.400;6.758;2024-02-26T12:10:28;6.90;99.90
82126;DHT22;71668;51.400;6.758;2024-02-26T12:13:06;7.00;99.90
82126;DHT22;71668;51.400;6.758;2024-02-26T12:15:37;7.00;99.90
82126;DHT22;71668;51.400;6.758;2024-02-26T12:18:06;7.00;99.90
82126;DHT22;71668;51.400;6.758;2024-02-26T12:20:34;7.10;99.90
82126;DHT22;71668;51.400;6.758;2024-02-26T12:23:02;7.10;99.90
82126;DHT22;71668;51.400;6.758;2024-02-26T12:25:31;7.20;99.90
82126;DHT22;71668;51.400;6.758;2024-02-26T12:27:58;7.20;99.90
82126;DHT22;71668;51.400;6.758;2024-02-26T12:30:26;7.20;99.90
82126;DHT22;71668;51.400;6.758;2024-02-26T12:33:00;7.20;99.90
82126;DHT22;71668;51.400;6.758;2024-02-26T12:35:28;7.20;99.90
82126;DHT22;71668;51.400;6.758;2024-02-26T12:37:55;7.30;99.90
82126;DHT22;71668;51.400;6.758;2024-02-26T12:40:22;7.20;99.90
82126;DHT22;71668;51.400;6.758;2024-02-26T12:42:50;7.30;99.90
82126;DHT22;71668;51.400;6.758;2024-02-26T12:45:16;7.30;99.90
82126;DHT22;71668;51.400;6.758;2024-02-26T12:47:44;7.40;99.90
82126;DHT22;71668;51.400;6.758;2024-02-26T12:50:18;7.40;99.90
82126;DHT22;71668;51.400;6.758;2024-02-26T12:52:46;7.30;99.90
82126;DHT22;71668;51.400;6.758;2024-02-26T12:55:17;7.40;99.90
82126;DHT22;71668;51.400;6.758;2024-02-26T12:57:45;7.30;99.90
82126;DHT22;71668;51.400;6.758;2024-02-26T13:00:16;7.30;99.90
82126;DHT22;71668;51.400;6.758;2024-02-26T13:02:45;7.30;99.90
82126;DHT22;71668;51.400;6.758;2024-02-26T13:05:13;7.30;99.90
82126;DHT22;71668;51.400;6.758;2024-02-26T13:07:44;7.40;99.90
82126;DHT22;71668;51.400;6.758;2024-02-26T13:10:11;7.40;99.90
82126;DHT22;71668;51.400;6.758;2024-02-26T13:12:48;7.50;99.90
82126;DHT22;71668;51.400;6.758;2024-02-26T13:15:20;7.50;99.90
82126;DHT22;71668;51.400;6.758;2024-02-26T13:17:48;7.50;99.90
82126;DHT22;71668;51.400;6.758;2024-02-26T13:20:30;7.50;99.90
82126;DHT22;71668;51.400;6.758;2024-02-26T13:23:11;7.50;99.90
82126;DHT22;71668;51.400;6.758;2024-02-26T13:25:38;7.50;99.90
82126;DHT22;71668;51.400;6.758;2024-02-26T13:28:18;7.50;99.90
82126;DHT22;71668;51.400;6.758;2024-02-26T13:30:53;7.40;99.90
82126;DHT22;71668;51.400;6.758;2024-02-26T13:33:28;7.50;99.90
82126;DHT22;71668;51.400;6.758;2024-02-26T13:36:00;7.50;99.90
82126;DHT22;71668;51.400;6.758;2024-02-26T13:38:27;7.50;99.90
82126;DHT22;71668;51.400;6.758;2024-02-26T13:40:58;7.50;99.90
82126;DHT22;71668;51.400;6.758;2024-02-26T13:43:25;7.50;99.90
82126;DHT22;71668;51.400;6.758;2024-02-26T13:45:55;7.50;99.90
82126;DHT22;71668;51.400;6.758;2024-02-26T13:48:25;7.50;99.90
82126;DHT22;71668;51.400;6.758;2024-02-26T13:50:56;7.50;99.90
82126;DHT22;71668;51.400;6.758;2024-02-26T13:53:23;7.50;99.90
82126;DHT22;71668;51.400;6.758;2024-02-26T13:55:52;7.50;99.90
82126;DHT22;71668;51.400;6.758;2024-02-26T13:58:19;7.50;99.90
82126;DHT22;71668;51.400;6.758;2024-02-26T14:00:49;7.60;99.90
82126;DHT22;71668;51.400;6.758;2024-02-26T14:03:19;7.60;99.90
82126;DHT22;71668;51.400;6.758;2024-02-26T14:05:46;7.70;99.90
82126;DHT22;71668;51.400;6.758;2024-02-26T14:08:17;7.70;99.90
82126;DHT22;71668;51.400;6.758;2024-02-26T14:10:44;7.70;99.90
82126;DHT22;71668;51.400;6.758;2024-02-26T14:13:11;7.70;99.90
82126;DHT22;71668;51.400;6.758;2024-02-26T14:15:38;7.70;99.90
82126;DHT22;71668;51.400;6.758;2024-02-26T14:18:07;7.70;99.90
82126;DHT22;71668;51.400;6.758;2024-02-26T14:20:34;7.80;99.90
82126;DHT22;71668;51.400;6.758;2024-02-26T14:23:01;7.80;99.90
82126;DHT22;71668;51.400;6.758;2024-02-26T14:25:28;7.80;99.90
82126;DHT22;71668;51.400;6.758;2024-02-26T14:27:57;7.80;99.90
82126;DHT22;71668;51.400;6.758;2024-02-26T14:30:26;7.70;99.90
82126;DHT22;71668;51.400;6.758;2024-02-26T14:32:53;7.70;99.90
82126;DHT22;71668;51.400;6.758;2024-02-26T14:35:20;7.70;99.90
82126;DHT22;71668;51.400;6.758;2024-02-26T14:37:47;7.70;99.90
82126;DHT22;71668;51.400;6.758;2024-02-26T14:40:16;7.60;99.90
82126;DHT22;71668;51.400;6.758;2024-02-26T14:42:43;7.70;99.90
82126;DHT22;71668;51.400;6.758;2024-02-26T14:45:11;7.70;99.90
82126;DHT22;71668;51.400;6.758;2024-02-26T14:47:38;7.70;99.90
82126;DHT22;71668;51.400;6.758;2024-02-26T14:50:06;7.80;99.90
82126;DHT22;71668;51.400;6.758;2024-02-26T14:52:33;7.80;99.90
82126;DHT22;71668;51.400;6.758;2024-02-26T14:55:00;7.90;99.90
82126;DHT22;71668;51.400;6.758;2024-02-26T14:57:26;7.90;99.90
82126;DHT22;71668;51.400;6.758;2024-02-26T14:59:53;7.90;99.90
82126;DHT22;71668;51.400;6.758;2024-02-26T15:02:20;7.90;99.90
82126;DHT22;71668;51.400;6.758;2024-02-26T15:04:47;7.90;99.90
82126;DHT22;71668;51.400;6.758;2024-02-26T15:07:15;7.90;99.90
82126;DHT22;71668;51.400;6.758;2024-02-26T15:09:43;7.90;99.90
82126;DHT22;71668;51.400;6.758;2024-02-26T15:12:10;7.80;99.90
82126;DHT22;71668;51.400;6.758;2024-02-26T15:14:37;7.90;99.90
82126;DHT22;71668;51.400;6.758;2024-02-26T15:17:05;7.90;99.90
82126;DHT22;71668;51.400;6.758;2024-02-26T15:19:37;7.90;99.90
82126;DHT22;71668;51.400;6.758;2024-02-26T15:22:04;7.90;99.90
82126;DHT22;71668;51.400;6.758;2024-02-26T15:24:31;7.90;99.90
82126;DHT22;71668;51.400;6.758;2024-02-26T15:26:58;7.90;99.90
82126;DHT22;71668;51.400;6.758;2024-02-26T15:29:25;7.80;99.90
82126;DHT22;71668;51.400;6.758;2024-02-26T15:31:53;7.80;99.90
82126;DHT22;71668;51.400;6.758;2024-02-26T15:34:23;7.80;99.90
82126;DHT22;71668;51.400;6.758;2024-02-26T15:36:50;7.80;99.90
82126;DHT22;71668;51.400;6.758;2024-02-26T15:39:17;7.80;99.90
82126;DHT22;71668;51.400;6.758;2024-02-26T15:41:44;7.80;99.90
82126;DHT22;71668;51.400;6.758;2024-02-26T15:44:11;7.80;99.90
82126;DHT22;71668;51.400;6.758;2024-02-26T15:46:41;7.80;99.90
82126;DHT22;71668;51.400;6.758;2024-02-26T15:49:08;7.90;99.90
82126;DHT22;71668;51.400;6.758;2024-02-26T15:51:40;7.90;99.90
82126;DHT22;71668;51.400;6.758;2024-02-26T15:54:09;7.90;99.90
82126;DHT22;71668;51.400;6.758;2024-02-26T15:56:36;7.80;99.90
82126;DHT22;71668;51.400;6.758;2024-02-26T15:59:05;7.90;99.90
82126;DHT22;71668;51.400;6.758;2024-02-26T16:01:32;7.80;99.90
82126;DHT22;71668;51.400;6.758;2024-02-26T16:03:59;7.80;99.90
82126;DHT22;71668;51.400;6.758;2024-02-26T16:08:57;7.90;99.90
82126;DHT22;71668;51.400;6.758;2024-02-26T16:11:24;7.90;99.90
82126;DHT22;71668;51.400;6.758;2024-02-26T16:16:57;7.90;99.90
82126;DHT22;71668;51.400;6.758;2024-02-26T16:19:25;7.90;99.90
82126;DHT22;71668;51.400;6.758;2024-02-26T16:21:55;7.90;99.90
82126;DHT22;71668;51.400;6.758;2024-02-26T16:24:22;7.90;99.90
82126;DHT22;71668;51.400;6.758;2024-02-26T16:26:49;7.90;99.90
82126;DHT22;71668;51.400;6.758;2024-02-26T16:29:16;7.90;99.90
82126;DHT22;71668;51.400;6.758;2024-02-26T16:31:43;7.90;99.90
82126;DHT22;71668;51.400;6.758;2024-02-26T16:34:10;7.90;99.90
82126;DHT22;71668;51.400;6.758;2024-02-26T16:36:37;7.80;99.90
82126;DHT22;71668;51.400;6.758;2024-02-26T16:39:04;7.90;99.90
82126;DHT22;71668;51.400;6.758;2024-02-26T16:41:34;7.90;99.90
82126;DHT22;71668;51.400;6.758;2024-02-26T16:44:01;7.80;99.90
82126;DHT22;71668;51.400;6.758;2024-02-26T16:46:29;7.80;99.90